Baghdad, Iraq

9:58 PM AST on July 27, 2016 (GMT +0300)
Baghdad International Air | | Change Station

Elev 115 ft 33.26 °N, 44.23 °E | Updated -88 second ago

Clear
Clear
93 °F
Feels Like 93 °F
N
7
Wind Variable Wind from North

Today
High -- | Low -- °F
--% Chance of Precip.
Yesterday
High -- | Low -- °F
Precip. -- in
Pressure 29.56 in
Visibility -9999.0 miles
Clouds
Dew Point 43 °F
Humidity 17%
Rainfall 0.00 in
Snow Depth Not available.
5:12 AM 7:06 PM
Last Quarter, 40% visible
METAR ORBI 271900Z 35006KT CAVOK 34/06 Q1001 NOSIG
Pressure 29.56 in
Visibility -9999.0 miles
Clouds
Dew Point 43 °F
Humidity 17%
Rainfall 0.00 in
Snow Depth Not available.
5:12 AM 7:06 PM
Last Quarter, 40% visible
METAR ORBI 271900Z 35006KT CAVOK 34/06 Q1001 NOSIG

10-Day Weather Forecast

No radar image for this location.
×

Almanac

Astronomy

Jul. 27, 2016 Rise Set
Actual Time
Civil Twilight
Nautical Twilight
Astronomical Twilight
Moon
Length of Visible Light
Length of Day
Tomorrow will be .
, % of the Moon is Illuminated

Today's Extremes

Country Highs Country Lows

Community

WunderPhotos

Upload Photos

1,927,897 photos uploaded!

WunderBlog® & News

Nearby

Air Quality

  Air Quality AQ Index Pollutant
Not available.

Snow Depth

Station Depth Elevation

Earthquake Activity

City Distance Mag. Time & Date
Minimum magnitude displayed is 2.5.

Coastal Water Temperatures

Place Temperature

Stations

Nearby Weather Stations

Station Location Temp. Windchill Dew Point Humidity Wind Precip. Elev Updated Type